createdAt,value
2022-08-19T00:00:07.176Z,843.77
2022-08-19T00:01:07.161Z,843.75
2022-08-19T00:02:07.140Z,843.68
2022-08-19T00:03:07.133Z,843.68
2022-08-19T00:04:07.147Z,843.47
2022-08-19T00:05:07.152Z,843.61
2022-08-19T00:06:07.102Z,843.57
2022-08-19T00:07:07.100Z,843.74
2022-08-19T00:08:07.085Z,843.67
2022-08-19T00:09:07.086Z,843.51
2022-08-19T00:10:07.052Z,843.54
2022-08-19T00:11:07.056Z,843.36
2022-08-19T00:12:07.032Z,843.41
2022-08-19T00:13:07.025Z,843.35
2022-08-19T00:14:07.025Z,843.38
2022-08-19T00:15:07.012Z,843.39
2022-08-19T00:16:07.985Z,843.29
2022-08-19T00:17:06.997Z,843.35
2022-08-19T00:18:06.965Z,843.32
2022-08-19T00:19:06.978Z,843.41
2022-08-19T00:20:06.974Z,843.47
2022-08-19T00:21:06.945Z,843.44
2022-08-19T00:22:06.930Z,843.27
2022-08-19T00:23:06.925Z,843.23
2022-08-19T00:24:06.917Z,843.35
2022-08-19T00:25:06.897Z,843.26
2022-08-19T00:26:06.885Z,843.26
2022-08-19T00:27:26.009Z,843.19
2022-08-19T00:28:07.868Z,843.08
2022-08-19T00:29:06.848Z,843.25
2022-08-19T00:30:06.859Z,843.23
2022-08-19T00:31:07.050Z,843.21
2022-08-19T00:32:06.817Z,843.13
2022-08-19T00:33:06.824Z,843.23
2022-08-19T00:34:06.793Z,843.14
2022-08-19T00:35:06.813Z,843.15
2022-08-19T00:36:06.768Z,843.19
2022-08-19T00:37:06.768Z,843.07
2022-08-19T00:38:06.761Z,843.20
2022-08-19T00:39:06.749Z,843.16
2022-08-19T00:40:06.783Z,843.22
2022-08-19T00:41:06.754Z,843.17
2022-08-19T00:42:06.709Z,843.19
2022-08-19T00:43:06.713Z,843.08
2022-08-19T00:44:06.684Z,843.25
2022-08-19T00:45:06.701Z,843.21
2022-08-19T00:46:06.654Z,843.10
2022-08-19T00:47:06.650Z,843.15
2022-08-19T00:48:13.449Z,843.09
2022-08-19T00:49:07.633Z,843.19
2022-08-19T00:50:06.733Z,843.16
2022-08-19T00:51:06.641Z,843.10
2022-08-19T00:52:06.634Z,843.09
2022-08-19T00:53:06.681Z,843.09
2022-08-19T00:54:06.693Z,843.14
2022-08-19T00:55:06.725Z,843.13
2022-08-19T00:56:06.762Z,843.16
2022-08-19T00:57:06.753Z,843.06
2022-08-19T00:58:06.793Z,843.07
2022-08-19T00:59:06.834Z,843.04
2022-08-19T01:00:06.874Z,842.98
2022-08-19T01:01:06.853Z,842.95
2022-08-19T01:02:06.489Z,842.96
2022-08-19T01:03:06.514Z,842.77
2022-08-19T01:04:06.466Z,842.91
2022-08-19T01:05:06.454Z,842.90
2022-08-19T01:06:06.485Z,842.79
2022-08-19T01:07:06.454Z,842.87
2022-08-19T01:08:06.441Z,842.86
2022-08-19T01:09:06.417Z,842.87
2022-08-19T01:10:06.385Z,842.80
2022-08-19T01:11:06.707Z,842.86
2022-08-19T01:12:06.369Z,842.85
2022-08-19T01:13:06.368Z,842.83
2022-08-19T01:14:06.346Z,842.89
2022-08-19T01:15:06.347Z,842.90
2022-08-19T01:16:06.328Z,842.86
2022-08-19T01:17:06.338Z,842.90
2022-08-19T01:18:06.298Z,842.85
2022-08-19T01:19:06.318Z,842.86
2022-08-19T01:20:06.298Z,842.94
2022-08-19T01:21:06.289Z,842.82
2022-08-19T01:22:14.347Z,842.79
2022-08-19T01:23:07.591Z,842.82
2022-08-19T01:24:06.238Z,842.74
2022-08-19T01:25:12.862Z,842.79
2022-08-19T01:26:07.226Z,842.94
2022-08-19T01:27:06.209Z,842.83
2022-08-19T01:28:09.883Z,842.83
2022-08-19T01:29:07.190Z,842.80
2022-08-19T01:30:06.215Z,842.87
2022-08-19T01:31:07.104Z,842.89
2022-08-19T01:32:06.167Z,842.83
2022-08-19T01:33:06.138Z,842.87
2022-08-19T01:34:06.143Z,842.69
2022-08-19T01:35:06.125Z,842.76
2022-08-19T01:36:06.090Z,842.67
2022-08-19T01:37:06.122Z,842.76
2022-08-19T01:38:06.079Z,842.60
2022-08-19T01:39:06.071Z,842.55
2022-08-19T01:40:09.335Z,842.67
2022-08-19T01:41:10.778Z,842.65
2022-08-19T01:42:07.077Z,842.70
2022-08-19T01:43:06.042Z,842.70
2022-08-19T01:44:17.610Z,842.69
2022-08-19T01:45:07.015Z,842.66
2022-08-19T01:46:06.061Z,842.48
2022-08-19T01:47:05.982Z,842.47
2022-08-19T01:48:05.984Z,842.37
2022-08-19T01:49:06.112Z,842.39
2022-08-19T01:50:05.942Z,842.31
2022-08-19T01:51:06.057Z,842.36
2022-08-19T01:52:05.970Z,842.30
2022-08-19T01:53:07.835Z,842.32
2022-08-19T01:54:06.056Z,842.26
2022-08-19T01:55:06.024Z,842.23
2022-08-19T01:56:06.055Z,842.26
2022-08-19T01:57:06.035Z,842.26
2022-08-19T01:58:06.077Z,842.17
2022-08-19T01:59:06.163Z,841.99
2022-08-19T02:00:06.051Z,842.03
2022-08-19T02:01:06.185Z,842.03
2022-08-19T02:02:06.077Z,842.05
2022-08-19T02:03:06.195Z,842.05
2022-08-19T02:04:06.082Z,841.93
2022-08-19T02:05:06.107Z,841.86
2022-08-19T02:06:06.167Z,842.01
2022-08-19T02:07:06.114Z,841.90
2022-08-19T02:08:06.319Z,841.99
2022-08-19T02:09:05.847Z,841.98
2022-08-19T02:10:06.634Z,841.93
2022-08-19T02:11:06.735Z,841.88
2022-08-19T02:12:06.027Z,842.02
2022-08-19T02:13:05.884Z,841.90
2022-08-19T02:14:05.998Z,842.01
2022-08-19T02:15:06.030Z,841.98
2022-08-19T02:16:05.670Z,842.06
2022-08-19T02:17:05.676Z,841.92
2022-08-19T02:18:05.677Z,841.86
2022-08-19T02:19:05.656Z,841.85
2022-08-19T02:20:05.607Z,841.87
2022-08-19T02:21:05.621Z,841.76
2022-08-19T02:22:05.587Z,841.80
2022-08-19T02:23:05.590Z,841.83
2022-08-19T02:24:06.586Z,841.73
2022-08-19T02:25:05.567Z,841.85
2022-08-19T02:26:05.546Z,841.78
2022-08-19T02:27:05.547Z,841.83
2022-08-19T02:28:05.523Z,841.88
2022-08-19T02:29:05.680Z,841.85
2022-08-19T02:30:05.511Z,841.75
2022-08-19T02:31:05.500Z,841.69
2022-08-19T02:32:05.480Z,841.72
2022-08-19T02:33:05.479Z,841.64
2022-08-19T02:34:05.451Z,841.81
2022-08-19T02:35:12.456Z,841.77
2022-08-19T02:36:06.435Z,841.68
2022-08-19T02:37:05.499Z,841.64
2022-08-19T02:38:05.499Z,841.85
2022-08-19T02:39:05.545Z,841.80
2022-08-19T02:40:12.119Z,841.79
2022-08-19T02:41:06.420Z,841.75
2022-08-19T02:42:05.521Z,841.77
2022-08-19T02:43:05.484Z,841.79
2022-08-19T02:44:29.716Z,841.74
2022-08-19T02:45:06.472Z,841.62
2022-08-19T02:46:05.323Z,841.66
2022-08-19T02:47:05.767Z,841.68
2022-08-19T02:48:05.396Z,841.74
2022-08-19T02:49:06.291Z,841.78
2022-08-19T02:50:05.279Z,841.76
2022-08-19T02:51:05.275Z,841.70
2022-08-19T02:52:05.274Z,841.79
2022-08-19T02:53:05.264Z,841.83
2022-08-19T02:54:05.235Z,841.72
2022-08-19T02:55:05.236Z,841.73
2022-08-19T02:56:05.215Z,841.57
2022-08-19T02:57:05.234Z,841.64
2022-08-19T02:58:05.216Z,841.60
2022-08-19T02:59:05.191Z,841.61
2022-08-19T03:00:05.176Z,841.44
2022-08-19T03:01:05.258Z,841.56
2022-08-19T03:02:05.155Z,841.47
2022-08-19T03:03:05.147Z,841.46
2022-08-19T03:04:05.143Z,841.44
2022-08-19T03:05:05.115Z,841.45
2022-08-19T03:06:05.108Z,841.42
2022-08-19T03:07:10.750Z,841.47
2022-08-19T03:08:06.260Z,841.53
2022-08-19T03:09:05.063Z,841.42
2022-08-19T03:10:05.063Z,841.44
2022-08-19T03:11:05.047Z,841.46
2022-08-19T03:12:05.048Z,841.43
2022-08-19T03:13:05.068Z,841.46
2022-08-19T03:14:05.020Z,841.54
2022-08-19T03:15:05.011Z,841.45
2022-08-19T03:16:04.999Z,841.43
2022-08-19T03:17:04.976Z,841.37
2022-08-19T03:18:04.976Z,841.47
2022-08-19T03:19:04.979Z,841.53
2022-08-19T03:20:04.973Z,841.35
2022-08-19T03:21:04.937Z,841.41
2022-08-19T03:22:04.939Z,841.51
2022-08-19T03:23:04.907Z,841.46
2022-08-19T03:24:04.930Z,841.37
2022-08-19T03:25:04.887Z,841.34
2022-08-19T03:26:16.459Z,841.38
2022-08-19T03:27:05.868Z,841.41
2022-08-19T03:28:04.880Z,841.37
2022-08-19T03:29:05.655Z,841.34
2022-08-19T03:30:04.854Z,841.29
2022-08-19T03:31:04.841Z,841.29
2022-08-19T03:32:05.825Z,841.31
2022-08-19T03:33:05.487Z,841.32
2022-08-19T03:34:04.808Z,841.33
2022-08-19T03:35:04.785Z,841.27
2022-08-19T03:36:04.780Z,841.19
2022-08-19T03:37:04.760Z,841.32
2022-08-19T03:38:04.748Z,841.17
2022-08-19T03:39:04.745Z,841.12
2022-08-19T03:40:04.783Z,841.23
2022-08-19T03:41:04.712Z,841.19
2022-08-19T03:42:32.263Z,841.15
2022-08-19T03:43:05.704Z,841.19
2022-08-19T03:44:04.720Z,841.16
2022-08-19T03:45:04.692Z,841.15
2022-08-19T03:46:04.691Z,841.15
2022-08-19T03:47:04.652Z,841.22
2022-08-19T03:48:04.644Z,841.30
2022-08-19T03:49:04.644Z,841.29
2022-08-19T03:50:04.644Z,841.11
2022-08-19T03:51:04.604Z,841.03
2022-08-19T03:52:04.595Z,841.17
2022-08-19T03:53:04.592Z,841.04
2022-08-19T03:54:04.584Z,841.03
2022-08-19T03:55:04.630Z,840.97
2022-08-19T03:56:04.552Z,841.06
2022-08-19T03:57:04.548Z,841.15
2022-08-19T03:58:04.636Z,840.99
2022-08-19T03:59:04.558Z,841.00
2022-08-19T04:00:13.590Z,840.92
2022-08-19T04:01:05.526Z,841.05
2022-08-19T04:02:04.560Z,841.06
2022-08-19T04:03:04.476Z,840.89
2022-08-19T04:04:04.798Z,840.84
2022-08-19T04:05:04.456Z,840.92
2022-08-19T04:06:04.436Z,840.79
2022-08-19T04:07:04.437Z,840.82
2022-08-19T04:08:04.424Z,840.88
2022-08-19T04:09:04.407Z,840.87
2022-08-19T04:10:04.438Z,840.94
2022-08-19T04:11:04.375Z,840.86
2022-08-19T04:12:04.388Z,840.78
2022-08-19T04:13:04.368Z,840.77
2022-08-19T04:14:04.444Z,840.82
2022-08-19T04:15:04.350Z,840.85
2022-08-19T04:16:04.328Z,841.00
2022-08-19T04:17:04.320Z,840.88
2022-08-19T04:18:04.338Z,840.72
2022-08-19T04:19:04.289Z,840.75
2022-08-19T04:20:07.019Z,840.81
2022-08-19T04:21:04.269Z,840.80
2022-08-19T04:22:04.269Z,840.79
2022-08-19T04:23:04.259Z,840.88
2022-08-19T04:24:04.258Z,840.82
2022-08-19T04:25:04.226Z,840.76
2022-08-19T04:26:04.246Z,840.93
2022-08-19T04:27:04.209Z,840.88
2022-08-19T04:28:04.201Z,840.77
2022-08-19T04:29:04.177Z,840.65
2022-08-19T04:30:04.187Z,840.71
2022-08-19T04:31:04.161Z,840.69
2022-08-19T04:32:09.107Z,840.67
2022-08-19T04:33:05.133Z,840.70
2022-08-19T04:34:04.121Z,840.63
2022-08-19T04:35:17.536Z,840.71
2022-08-19T04:36:05.117Z,840.62
2022-08-19T04:37:04.081Z,840.71
2022-08-19T04:38:04.109Z,840.73
2022-08-19T04:39:04.072Z,840.67
2022-08-19T04:40:04.112Z,840.69
2022-08-19T04:41:04.057Z,840.74
2022-08-19T04:42:04.058Z,840.66
2022-08-19T04:43:04.025Z,840.69
2022-08-19T04:44:04.643Z,840.75
2022-08-19T04:45:03.994Z,840.73
2022-08-19T04:46:03.992Z,840.76
2022-08-19T04:47:04.012Z,840.75
2022-08-19T04:48:26.295Z,840.71
2022-08-19T04:49:10.408Z,840.76
2022-08-19T04:50:04.945Z,840.80
2022-08-19T04:51:04.094Z,840.71
2022-08-19T04:52:03.932Z,840.67
2022-08-19T04:53:03.921Z,840.80
2022-08-19T04:54:03.907Z,840.68
2022-08-19T04:55:03.885Z,840.68
2022-08-19T04:56:03.886Z,840.65
2022-08-19T04:57:03.865Z,840.76
2022-08-19T04:58:03.865Z,840.80
2022-08-19T04:59:03.844Z,840.73
2022-08-19T05:00:03.846Z,840.78
2022-08-19T05:01:03.888Z,840.70
2022-08-19T05:02:03.813Z,840.79
2022-08-19T05:03:03.809Z,840.76
2022-08-19T05:04:03.800Z,840.78
2022-08-19T05:05:03.774Z,840.78
2022-08-19T05:06:03.787Z,840.77
2022-08-19T05:07:03.761Z,840.79
2022-08-19T05:08:03.745Z,840.83
2022-08-19T05:09:03.725Z,840.86
2022-08-19T05:10:03.737Z,840.84
2022-08-19T05:11:03.705Z,840.92
2022-08-19T05:12:03.697Z,840.87
2022-08-19T05:13:03.697Z,840.87
2022-08-19T05:14:03.690Z,840.83
2022-08-19T05:15:03.697Z,840.93
2022-08-19T05:16:03.657Z,840.86
2022-08-19T05:17:26.066Z,840.82
2022-08-19T05:18:04.649Z,840.80
2022-08-19T05:19:03.630Z,840.93
2022-08-19T05:20:03.631Z,840.83
2022-08-19T05:21:03.589Z,840.75
2022-08-19T05:22:03.590Z,840.91
2022-08-19T05:23:09.558Z,841.02
2022-08-19T05:24:04.577Z,840.97
2022-08-19T05:25:12.701Z,840.96
2022-08-19T05:26:04.542Z,840.98
2022-08-19T05:27:03.539Z,840.91
2022-08-19T05:28:03.590Z,840.92
2022-08-19T05:29:03.561Z,840.92
2022-08-19T05:30:03.550Z,841.04
2022-08-19T05:31:03.555Z,841.03
2022-08-19T05:32:03.525Z,841.00
2022-08-19T05:33:03.590Z,841.21
2022-08-19T05:34:03.554Z,841.18
2022-08-19T05:35:03.514Z,841.17
2022-08-19T05:36:04.131Z,841.24
2022-08-19T05:37:03.601Z,841.13
2022-08-19T05:38:03.590Z,841.05
2022-08-19T05:39:03.561Z,841.04
2022-08-19T05:40:03.669Z,841.18
2022-08-19T05:41:03.643Z,841.20
2022-08-19T05:42:03.682Z,841.27
2022-08-19T05:43:03.486Z,841.24
2022-08-19T05:44:03.496Z,841.28
2022-08-19T05:45:03.364Z,841.22
2022-08-19T05:46:03.422Z,841.36
2022-08-19T05:47:03.301Z,841.38
2022-08-19T05:48:03.566Z,841.41
2022-08-19T05:49:03.968Z,841.34
2022-08-19T05:50:04.899Z,841.25
2022-08-19T05:51:03.267Z,841.31
2022-08-19T05:52:03.300Z,841.35
2022-08-19T05:53:03.265Z,841.36
2022-08-19T05:54:03.232Z,841.41
2022-08-19T05:55:03.225Z,841.40
2022-08-19T05:56:03.224Z,841.46
2022-08-19T05:57:03.204Z,841.53
2022-08-19T05:58:03.228Z,841.52
2022-08-19T05:59:03.164Z,841.54
2022-08-19T06:00:03.184Z,841.64
2022-08-19T06:01:03.172Z,841.78
2022-08-19T06:02:03.152Z,841.76
2022-08-19T06:03:03.298Z,841.87
2022-08-19T06:04:04.136Z,841.76
2022-08-19T06:05:03.156Z,841.71
2022-08-19T06:06:03.138Z,841.69
2022-08-19T06:07:12.254Z,841.83
2022-08-19T06:08:04.077Z,841.89
2022-08-19T06:09:03.896Z,841.80
2022-08-19T06:10:03.084Z,841.86
2022-08-19T06:11:03.128Z,841.89
2022-08-19T06:12:03.216Z,841.85
2022-08-19T06:13:03.076Z,841.88
2022-08-19T06:14:03.228Z,841.71
2022-08-19T06:15:03.080Z,841.85
2022-08-19T06:16:03.107Z,841.84
2022-08-19T06:17:06.869Z,841.99
2022-08-19T06:18:03.168Z,841.92
2022-08-19T06:19:03.120Z,841.95
2022-08-19T06:20:03.144Z,841.94
2022-08-19T06:21:03.172Z,841.89
2022-08-19T06:22:03.177Z,841.87
2022-08-19T06:23:03.353Z,841.95
2022-08-19T06:24:03.055Z,841.91
2022-08-19T06:25:03.129Z,841.97
2022-08-19T06:26:02.870Z,841.95
2022-08-19T06:27:02.883Z,841.91
2022-08-19T06:28:18.579Z,841.95
2022-08-19T06:29:04.080Z,841.91
2022-08-19T06:30:02.828Z,842.12
2022-08-19T06:31:02.813Z,842.10
2022-08-19T06:32:02.846Z,842.09
2022-08-19T06:33:02.792Z,842.23
2022-08-19T06:34:02.781Z,842.38
2022-08-19T06:35:02.770Z,842.44
2022-08-19T06:36:02.812Z,842.43
2022-08-19T06:37:02.773Z,842.43
2022-08-19T06:38:02.742Z,842.41
2022-08-19T06:39:02.721Z,842.45
2022-08-19T06:40:02.909Z,842.63
2022-08-19T06:41:02.722Z,842.71
2022-08-19T06:42:03.968Z,842.77
2022-08-19T06:43:02.681Z,842.71
2022-08-19T06:44:02.681Z,842.82
2022-08-19T06:45:02.666Z,842.87
2022-08-19T06:46:03.661Z,842.85
2022-08-19T06:47:02.650Z,842.89
2022-08-19T06:48:03.645Z,843.02
2022-08-19T06:49:02.616Z,843.13
2022-08-19T06:50:02.893Z,843.19
2022-08-19T06:51:02.595Z,843.13
2022-08-19T06:52:03.605Z,843.31
2022-08-19T06:53:04.376Z,843.32
2022-08-19T06:54:02.567Z,843.43
2022-08-19T06:55:06.197Z,843.30
2022-08-19T06:56:02.544Z,843.50
2022-08-19T06:57:02.532Z,843.45
2022-08-19T06:58:02.535Z,843.47
2022-08-19T06:59:09.580Z,843.63
2022-08-19T07:00:02.607Z,843.66
2022-08-19T07:01:05.664Z,843.69
2022-08-19T07:02:03.479Z,843.78
2022-08-19T07:03:06.206Z,843.82
2022-08-19T07:04:03.451Z,843.97
2022-08-19T07:05:02.451Z,843.88
2022-08-19T07:06:02.452Z,844.18
2022-08-19T07:07:15.174Z,844.04
2022-08-19T07:08:05.102Z,844.19
2022-08-19T07:09:02.464Z,844.12
2022-08-19T07:10:04.862Z,844.24
2022-08-19T07:11:02.351Z,844.33
2022-08-19T07:12:03.368Z,844.44
2022-08-19T07:13:02.343Z,844.52
2022-08-19T07:14:02.350Z,844.39
2022-08-19T07:15:02.324Z,844.54
2022-08-19T07:16:02.311Z,844.68
2022-08-19T07:17:02.311Z,844.81
2022-08-19T07:18:02.295Z,844.82
2022-08-19T07:19:11.614Z,844.80
2022-08-19T07:20:05.044Z,845.02
2022-08-19T07:21:02.263Z,844.93
2022-08-19T07:22:02.255Z,844.92
2022-08-19T07:23:02.247Z,845.00
2022-08-19T07:24:05.421Z,845.12
2022-08-19T07:25:02.235Z,845.26
2022-08-19T07:27:02.219Z,845.49
2022-08-19T07:28:02.195Z,845.65
2022-08-19T07:29:02.176Z,845.69
2022-08-19T07:30:02.195Z,845.87
2022-08-19T07:31:02.195Z,845.80
2022-08-19T07:32:02.127Z,845.78
2022-08-19T07:33:03.582Z,845.64
2022-08-19T07:34:02.116Z,845.81
2022-08-19T07:35:02.147Z,845.82
2022-08-19T07:36:02.088Z,845.85
2022-08-19T07:37:02.095Z,845.98
2022-08-19T07:38:02.080Z,845.89
2022-08-19T07:39:02.055Z,846.18
2022-08-19T07:40:02.285Z,846.13
2022-08-19T07:41:02.035Z,846.09
2022-08-19T07:42:02.027Z,846.08
2022-08-19T07:43:02.027Z,846.16
2022-08-19T07:44:02.000Z,846.25
2022-08-19T07:45:02.027Z,846.24
2022-08-19T07:46:02.022Z,846.40
2022-08-19T07:47:01.968Z,846.39
2022-08-19T07:48:02.172Z,846.48
2022-08-19T07:49:01.965Z,846.46
2022-08-19T07:50:01.939Z,846.56
2022-08-19T07:51:01.927Z,846.56
2022-08-19T07:52:01.907Z,846.66
2022-08-19T07:53:01.919Z,846.78
2022-08-19T07:54:01.892Z,846.75
2022-08-19T07:55:02.060Z,846.71
2022-08-19T07:56:01.861Z,846.53
2022-08-19T07:57:01.872Z,846.70
2022-08-19T07:58:01.859Z,846.73
2022-08-19T07:59:01.852Z,846.68
2022-08-19T08:00:01.842Z,846.57
2022-08-19T08:01:01.812Z,846.60
2022-08-19T08:02:01.856Z,846.63
2022-08-19T08:03:01.796Z,846.64
2022-08-19T08:04:01.792Z,846.60
2022-08-19T08:05:01.784Z,846.49
2022-08-19T08:06:01.765Z,846.36
2022-08-19T08:07:01.752Z,846.38
2022-08-19T08:08:01.736Z,846.36
2022-08-19T08:09:01.745Z,846.48
2022-08-19T08:10:03.373Z,846.43
2022-08-19T08:11:01.712Z,846.37
2022-08-19T08:12:05.073Z,846.46
2022-08-19T08:13:09.538Z,846.49
2022-08-19T08:14:04.471Z,846.63
2022-08-19T08:15:01.683Z,846.62
2022-08-19T08:16:01.644Z,846.66
2022-08-19T08:17:01.646Z,846.70
2022-08-19T08:18:01.797Z,846.61
2022-08-19T08:19:01.668Z,846.53
2022-08-19T08:20:01.617Z,846.69
2022-08-19T08:21:01.636Z,846.72
2022-08-19T08:22:01.597Z,846.73
2022-08-19T08:23:01.577Z,846.60
2022-08-19T08:24:01.580Z,846.87
2022-08-19T08:25:01.569Z,846.75
2022-08-19T08:26:01.549Z,846.76
2022-08-19T08:27:01.549Z,846.78
2022-08-19T08:28:01.533Z,846.89
2022-08-19T08:29:01.530Z,846.94
2022-08-19T08:30:02.873Z,846.99
2022-08-19T08:31:01.509Z,846.85
2022-08-19T08:32:01.477Z,846.68
2022-08-19T08:33:02.601Z,846.60
2022-08-19T08:34:01.470Z,846.66
2022-08-19T08:35:01.469Z,846.75
2022-08-19T08:36:01.458Z,846.68
2022-08-19T08:37:01.429Z,846.64
2022-08-19T08:38:01.617Z,846.62
2022-08-19T08:39:01.424Z,846.87
2022-08-19T08:40:01.476Z,846.87
2022-08-19T08:41:01.430Z,846.76
2022-08-19T08:42:01.362Z,846.88
2022-08-19T08:44:01.341Z,847.14
2022-08-19T08:45:01.345Z,847.33
2022-08-19T08:46:01.330Z,847.35
2022-08-19T08:47:01.343Z,847.36
2022-08-19T08:48:01.322Z,847.22
2022-08-19T08:49:01.289Z,847.37
2022-08-19T08:50:01.293Z,847.29
2022-08-19T08:51:01.274Z,847.37
2022-08-19T08:52:01.254Z,847.40
2022-08-19T08:53:01.262Z,847.50
2022-08-19T08:54:01.235Z,847.69
2022-08-19T08:55:01.264Z,847.78
2022-08-19T08:56:01.638Z,847.84
2022-08-19T08:57:01.222Z,847.82
2022-08-19T08:58:01.193Z,847.83
2022-08-19T08:59:01.229Z,847.78
2022-08-19T09:00:01.173Z,847.90
2022-08-19T09:01:01.173Z,847.95
2022-08-19T09:02:01.248Z,847.99
2022-08-19T09:03:01.154Z,848.06
2022-08-19T09:04:02.690Z,848.46
2022-08-19T09:05:02.311Z,848.47
2022-08-19T09:06:01.113Z,848.36
2022-08-19T09:07:01.094Z,848.39
2022-08-19T09:08:02.086Z,848.49
2022-08-19T09:09:01.086Z,848.75
2022-08-19T09:10:01.067Z,848.88
2022-08-19T09:11:01.078Z,848.92
2022-08-19T09:12:01.038Z,848.96
2022-08-19T09:13:01.027Z,849.02
2022-08-19T09:14:01.025Z,848.71
2022-08-19T09:15:01.026Z,848.34
2022-08-19T09:16:01.173Z,848.42
2022-08-19T09:17:00.990Z,848.44
2022-08-19T09:18:01.075Z,848.36
2022-08-19T09:19:00.972Z,848.30
2022-08-19T09:20:01.659Z,848.43
2022-08-19T09:21:00.998Z,848.40
2022-08-19T09:22:00.933Z,848.61
2022-08-19T09:23:00.910Z,848.82
2022-08-19T09:24:00.912Z,848.99
2022-08-19T09:25:00.925Z,849.26
2022-08-19T09:26:00.899Z,849.17
2022-08-19T09:27:01.590Z,849.34
2022-08-19T09:28:02.433Z,849.02
2022-08-19T09:29:00.870Z,849.00
2022-08-19T09:30:00.854Z,848.90
2022-08-19T09:31:00.862Z,849.03
2022-08-19T09:32:00.837Z,849.23
2022-08-19T09:33:00.850Z,849.16
2022-08-19T09:34:00.802Z,849.11
2022-08-19T09:35:00.804Z,849.14
2022-08-19T09:36:00.875Z,849.04
2022-08-19T09:37:00.782Z,849.22
2022-08-19T09:38:00.937Z,849.29
2022-08-19T09:39:00.752Z,849.37
2022-08-19T09:40:00.872Z,849.37
2022-08-19T09:41:00.754Z,849.26
2022-08-19T09:42:00.722Z,849.24
2022-08-19T09:43:00.734Z,849.14
2022-08-19T09:44:00.688Z,848.82
2022-08-19T09:45:00.692Z,849.08
2022-08-19T09:46:00.715Z,849.18
2022-08-19T09:47:00.669Z,849.35
2022-08-19T09:48:00.643Z,849.54
2022-08-19T09:49:03.077Z,849.87
2022-08-19T09:50:01.648Z,849.83
2022-08-19T09:51:00.622Z,849.74
2022-08-19T09:52:00.608Z,849.56
2022-08-19T09:53:00.608Z,849.57
2022-08-19T09:54:00.576Z,849.57
2022-08-19T09:55:00.699Z,849.49
2022-08-19T09:56:01.556Z,849.57
2022-08-19T09:57:00.556Z,849.42
2022-08-19T09:58:00.937Z,849.22
2022-08-19T09:59:00.530Z,849.20
2022-08-19T10:00:00.541Z,849.20
2022-08-19T10:01:00.542Z,849.20
2022-08-19T10:02:03.633Z,849.38
2022-08-19T10:03:01.492Z,849.61
2022-08-19T10:04:00.491Z,849.67
2022-08-19T10:05:00.756Z,850.14
2022-08-19T10:06:00.459Z,850.43
2022-08-19T10:07:00.459Z,850.34
2022-08-19T10:08:00.472Z,850.58
2022-08-19T10:09:00.420Z,850.65
2022-08-19T10:10:00.443Z,850.70
2022-08-19T10:11:27.174Z,850.52
2022-08-19T10:12:01.386Z,850.57
2022-08-19T10:13:00.391Z,850.23
2022-08-19T10:14:00.383Z,850.35
2022-08-19T10:15:00.362Z,850.48
2022-08-19T10:16:00.343Z,850.49
2022-08-19T10:17:00.346Z,850.48
2022-08-19T10:18:00.326Z,850.26
2022-08-19T10:19:00.326Z,850.41
2022-08-19T10:20:00.304Z,850.48
2022-08-19T10:21:00.293Z,850.20
2022-08-19T10:22:00.695Z,850.16
2022-08-19T10:23:00.285Z,850.21
2022-08-19T10:24:00.246Z,850.28
2022-08-19T10:25:00.307Z,850.49
2022-08-19T10:26:00.245Z,850.56
2022-08-19T10:27:00.224Z,850.63
2022-08-19T10:28:00.217Z,850.74
2022-08-19T10:29:00.470Z,850.81
2022-08-19T10:30:00.186Z,850.22
2022-08-19T10:31:00.188Z,850.45
2022-08-19T10:32:02.464Z,850.66
2022-08-19T10:33:00.160Z,850.69
2022-08-19T10:34:00.139Z,850.53
2022-08-19T10:35:00.176Z,850.70
2022-08-19T10:36:00.124Z,850.61
2022-08-19T10:37:00.947Z,850.59
2022-08-19T10:38:01.851Z,850.64
2022-08-19T10:39:00.100Z,850.40
2022-08-19T10:40:00.189Z,850.32
2022-08-19T10:41:00.079Z,850.44
2022-08-19T10:42:00.063Z,850.56
2022-08-19T10:43:00.073Z,850.73
2022-08-19T10:44:04.218Z,850.80
2022-08-19T10:45:00.061Z,851.09
2022-08-19T10:46:00.039Z,851.59
2022-08-19T10:47:00.153Z,851.81
2022-08-19T10:48:00.003Z,851.85
2022-08-19T10:49:00.018Z,851.74
2022-08-19T10:50:00.024Z,851.84
2022-08-19T10:50:59.972Z,851.81
2022-08-19T10:51:59.964Z,851.47
2022-08-19T10:52:59.944Z,851.36
2022-08-19T10:53:59.934Z,851.29
2022-08-19T10:54:59.946Z,851.24
2022-08-19T10:56:00.916Z,850.92
2022-08-19T10:56:59.896Z,850.75
2022-08-19T10:58:02.505Z,850.82
2022-08-19T10:58:59.892Z,851.12
2022-08-19T10:59:59.877Z,851.18
2022-08-19T11:00:59.925Z,851.50
2022-08-19T11:01:59.856Z,851.59
2022-08-19T11:02:59.837Z,851.83
2022-08-19T11:03:59.862Z,851.33
2022-08-19T11:05:04.888Z,851.08
2022-08-19T11:06:00.828Z,850.79
2022-08-19T11:07:00.180Z,850.72
2022-08-19T11:07:59.852Z,850.39
2022-08-19T11:08:59.768Z,850.38
2022-08-19T11:09:59.777Z,850.37
2022-08-19T11:10:59.760Z,850.34
2022-08-19T11:11:59.780Z,850.67
2022-08-19T11:12:59.728Z,850.82
2022-08-19T11:13:59.713Z,851.00
2022-08-19T11:14:59.740Z,851.15
2022-08-19T11:16:02.838Z,850.99
2022-08-19T11:17:00.705Z,850.91
2022-08-19T11:18:00.560Z,850.71
2022-08-19T11:18:59.669Z,850.41
2022-08-19T11:19:59.652Z,850.42
2022-08-19T11:20:59.660Z,850.36
2022-08-19T11:22:00.188Z,850.16
2022-08-19T11:22:59.641Z,850.35
2022-08-19T11:23:59.620Z,850.54
2022-08-19T11:24:59.621Z,850.50
2022-08-19T11:25:59.620Z,850.56
2022-08-19T11:26:59.687Z,850.63
2022-08-19T11:27:59.625Z,850.80
2022-08-19T11:28:59.572Z,850.61
2022-08-19T11:29:59.609Z,850.49
2022-08-19T11:30:59.552Z,850.47
2022-08-19T11:31:59.605Z,850.74
2022-08-19T11:32:59.516Z,850.86
2022-08-19T11:33:59.576Z,850.81
2022-08-19T11:34:59.578Z,850.99
2022-08-19T11:35:59.504Z,851.06
2022-08-19T11:36:59.484Z,850.89
2022-08-19T11:37:59.465Z,851.12
2022-08-19T11:38:59.445Z,851.20
2022-08-19T11:39:59.472Z,851.37
2022-08-19T11:40:59.445Z,851.39
2022-08-19T11:41:59.425Z,851.33
2022-08-19T11:42:59.397Z,851.34
2022-08-19T11:43:59.401Z,851.33
2022-08-19T11:44:59.455Z,851.60
2022-08-19T11:45:59.377Z,851.72
2022-08-19T11:46:59.361Z,851.63
2022-08-19T11:48:00.357Z,851.74
2022-08-19T11:48:59.350Z,851.66
2022-08-19T11:49:59.330Z,851.75
2022-08-19T11:50:59.331Z,851.87
2022-08-19T11:51:59.307Z,852.16
2022-08-19T11:52:59.310Z,852.10
2022-08-19T11:53:59.300Z,852.43
2022-08-19T11:54:59.295Z,852.41
2022-08-19T11:55:59.320Z,852.09
2022-08-19T11:56:59.260Z,851.86
2022-08-19T11:57:59.248Z,851.55
2022-08-19T11:58:59.223Z,851.54
2022-08-19T11:59:59.234Z,851.50
2022-08-19T12:00:59.224Z,851.52
2022-08-19T12:01:59.473Z,851.79
2022-08-19T12:02:59.195Z,851.75
2022-08-19T12:03:59.300Z,852.21
2022-08-19T12:04:59.153Z,852.10
2022-08-19T12:05:59.175Z,851.98
2022-08-19T12:06:59.156Z,852.13
2022-08-19T12:07:59.153Z,851.88
2022-08-19T12:08:59.123Z,851.71
2022-08-19T12:09:59.115Z,851.66
2022-08-19T12:10:59.096Z,851.54
2022-08-19T12:11:59.144Z,851.28
2022-08-19T12:12:59.177Z,851.16
2022-08-19T12:13:59.101Z,851.12
2022-08-19T12:14:59.097Z,851.45
2022-08-19T12:15:59.067Z,851.36
2022-08-19T12:16:59.064Z,851.40
2022-08-19T12:17:59.047Z,851.23
2022-08-19T12:18:59.030Z,851.17
2022-08-19T12:19:59.022Z,851.16
2022-08-19T12:20:58.986Z,851.29
2022-08-19T12:21:59.015Z,851.32
2022-08-19T12:22:58.970Z,851.10
2022-08-19T12:23:58.962Z,851.16
2022-08-19T12:24:58.958Z,850.98
2022-08-19T12:25:58.970Z,851.06
2022-08-19T12:27:00.827Z,850.76
2022-08-19T12:27:59.359Z,850.95
2022-08-19T12:28:58.899Z,851.05
2022-08-19T12:29:58.904Z,851.44